Startpagina
METAR-TAF:

METAR-TAF

Vliegvelden :

Internationale Luchthaven Antwerpen

Antwerpen, België

breedte: 51-12N, lengte: 004-28E, hoogte: 12 m

Actueel weer

Dit bericht is 35 minuten geleden gemaakt, om 03:20 UTC
Wind 5 kt uit het noordnoordwesten
Temperatuur 1°C
Vochtigheid 75%
Druk 1022 hPa
Zicht 10 km of meer

METAR: EBAW 230320Z AUTO 34005KT 9999 // VV/// 01/M03 Q1022

Tijdstip: 05:55 (03:55 UTC)

Verwachting

Dit bericht is 1 uur en het 55 minuten geleden gemaakt, om 02:00 UTC
Verwachting geldig van 23 om 03 UTC tot 23 om 12 UTC
Wind 4 kt uit het noorden
Zicht 10 km of meer
Weinig wolken op 3500 ft

TAF: EBAW 230200Z 2303/2312 01004KT 9999 FEW035

Waarnemingen en weersverwachtingen van meer dan 4000 vliegvelden (METAR en TAF).

De beschikbare stations zijn de gele en rode punten op de kaart.

Ga met uw muis naar het station om de naam te zien.

Klik dan om waarnemingen en weersverwachtingen te zien.

kaart wijzigen: klik op de groene knoppen met een zwart kruis om in te zoomen, op de groene knop met een streepje om uit te zoomen of op de groene pijlen voor aangrenzende kaarten.


METAR-TAF: